No es requereix cap vigilancia particular del temps.    no hi ha advert√®ncies





My webcam more information My webcam


Meteosat more information Meteosat


Radar de pluja more information rain snow radar


Visita la nostra xarxa de llocs de meteo:

Template documentation
and downloads

And another site


Trobareu la nostra informacio del temps tambe a:

European Weather Network

WeatherCloud

Weather Underground

Meteoclimatic



Nearby METAR Reports

   
LERS - Reus
Actualitzacio: 21-05-2018 09:00
Clar  
Clar  
   Vent: varia 3.7 km/h
Vent: varia 3.7 km/h
Temperatura: 18°C
Punt de rosada: 14°C
Humitat: 78%
Barometre: 1012 hPa
Visibilitat: More than 10 km
Cloud details: Clar
LERS 210700Z VRB02KT CAVOK 18/14 Q1012
LEDA - Lleida
Actualitzacio: 20-05-2018 20:00
NO actual
Parcialment tapat  
Parcialment tapat  
   Vent: ENE 18.5 km/h
Vent: ENE 18.5 km/h
Temperatura: 19°C
Punt de rosada: 13°C
Humitat: 68%
Barometre: 1013 hPa
Nuvols: Parcialment tapat
Visibilitat: More than 10 km
Cloud details: Nuvols dispersos 3500 ft,
Parcialment tapat 4500 ft
LEDA 201800Z 07010KT 9999 FEW035CB SCT045 19/13 Q1013
LEGE - Girona
Actualitzacio: 21-05-2018 09:00
Clar  
Clar  
   Vent: varia 3.7 km/h
Vent: varia 3.7 km/h
Temperatura: 15°C
Punt de rosada: 15°C
Humitat: 100%
Barometre: 1013 hPa
Visibilitat: More than 10 km
Cloud details: Clar
LEGE 210700Z VRB02KT CAVOK 15/15 Q1013
LEMH - Mahon
Actualitzacio: 21-05-2018 09:00
pluja, Nuvols dispersos  
pluja, Nuvols dispersos  
   Vent: NNW 7.4 km/h
Vent: NNW 7.4 km/h
Temperatura: 15°C
Punt de rosada: 14°C
Humitat: 94%
Barometre: 1011 hPa
Nuvols: Nuvols dispersos
Visibilitat: More than 10 km
Cloud details: Nuvols dispersos 2000 ft
LEMH 210700Z 33004KT 290V360 9999 -RA FEW020CB 15/14 Q1011
LFMK - Carcassonne
Actualitzacio: 21-05-2018 09:00
Clar  
Clar  
   Vent: Est 16.7 km/h
Vent: Est 16.7 km/h
Temperatura: 18°C
Punt de rosada: 13°C
Humitat: 73%
Barometre: 1013 hPa
Nuvols: Clar
Visibilitat: More than 10 km
Cloud details: Nuvols dispersos 1800 ft,
Clar 10000 ft
LFMK 210700Z AUTO 10009KT 080V160 9999 FEW018 OVC100 18/13 Q1013 NOSIG
 

Guio original per  Saratoga-weather.org Adaptat per a la plantilla per  Weerstation Leuven

Equip utilitzat:

Weather-program
Weewx

Weather-server
RaspberryPI 2

Proveidor

Weewx

RaspberryPI 2




Código de ejemplo | Política de Cookies
OK| Solicitamos su permiso para obtener datos estadísticos de su navegación en esta web, en cumplimiento del Real Decreto-ley 13/2012. Si continúa navegando consideramos que acepta el uso de cookies. | Más información